Time,TemperatureF,DewpointF,PressureIn,WindDirection,WindDirectionDegrees,WindSpeedMPH,WindSpeedGustMPH,Humidity,HourlyPrecipIn,Conditions,Clouds,dailyrainin,SolarRadiationWatts/m^2,SoftwareType,DateUTC
2013-01-27 00:01:00,38.0,38.0,-100.00,NNW,340,1.0,4.0,100,0.00,,,0.73,0.000000,,2013-01-27 08:01:00,
2013-01-27 00:11:00,38.0,38.0,-100.00,NNW,340,1.0,4.0,100,0.00,,,0.73,0.000000,,2013-01-27 08:11:00,
2013-01-27 00:32:00,39.0,39.0,-100.00,ENE,58,0.0,4.0,100,0.04,,,0.77,0.000000,,2013-01-27 08:32:00,
2013-01-27 00:42:00,39.0,39.0,-100.00,ENE,58,0.0,4.0,100,0.04,,,0.77,0.000000,,2013-01-27 08:42:00,
2013-01-27 00:52:00,39.0,39.0,-100.00,ENE,58,0.0,4.0,100,0.04,,,0.77,0.000000,,2013-01-27 08:52:00,
2013-01-27 01:02:00,39.0,39.0,-100.00,ENE,58,0.0,4.0,100,0.04,,,0.77,0.000000,,2013-01-27 09:02:00,
2013-01-27 01:11:00,39.0,39.0,-100.00,ENE,58,0.0,4.0,100,0.04,,,0.77,0.000000,,2013-01-27 09:11:00,
2013-01-27 01:32:00,37.0,37.0,-100.00,NNE,33,1.0,3.0,100,0.01,,,0.68,0.000000,,2013-01-27 09:32:00,
2013-01-27 01:42:00,37.0,37.0,-100.00,NNE,33,1.0,3.0,100,0.01,,,0.68,0.000000,,2013-01-27 09:42:00,
2013-01-27 01:52:00,37.0,37.0,-100.00,NNE,33,1.0,3.0,100,0.01,,,0.68,0.000000,,2013-01-27 09:52:00,
2013-01-27 02:01:00,37.0,37.0,-100.00,NNE,33,1.0,3.0,100,0.01,,,0.68,0.000000,,2013-01-27 10:01:00,
2013-01-27 02:11:00,37.0,37.0,-100.00,NNE,33,1.0,3.0,100,0.01,,,0.68,0.000000,,2013-01-27 10:11:00,
2013-01-27 02:32:00,36.0,36.0,-100.00,West,261,0.0,2.0,100,0.00,,,0.56,0.000000,,2013-01-27 10:32:00,
2013-01-27 02:42:00,36.0,36.0,-100.00,West,261,0.0,2.0,100,0.00,,,0.56,0.000000,,2013-01-27 10:42:00,
2013-01-27 02:52:00,36.0,36.0,-100.00,West,261,0.0,2.0,100,0.00,,,0.56,0.000000,,2013-01-27 10:52:00,
2013-01-27 03:01:00,36.0,36.0,-100.00,West,261,0.0,2.0,100,0.00,,,0.56,0.000000,,2013-01-27 11:01:00,
2013-01-27 03:11:00,36.0,36.0,-100.00,West,261,0.0,2.0,100,0.00,,,0.56,0.000000,,2013-01-27 11:11:00,
2013-01-27 03:32:00,37.0,37.0,-100.00,NNE,25,2.0,4.0,100,0.00,,,0.47,0.000000,,2013-01-27 11:32:00,
2013-01-27 03:42:00,37.0,37.0,-100.00,NNE,25,2.0,4.0,100,0.00,,,0.47,0.000000,,2013-01-27 11:42:00,
2013-01-27 03:52:00,37.0,37.0,-100.00,NNE,25,2.0,4.0,100,0.00,,,0.47,0.000000,,2013-01-27 11:52:00,
2013-01-27 04:02:00,37.0,37.0,-100.00,NNE,25,2.0,4.0,100,0.00,,,0.47,0.000000,,2013-01-27 12:02:00,
2013-01-27 04:11:00,37.0,37.0,-100.00,NNE,25,2.0,4.0,100,0.00,,,0.47,0.000000,,2013-01-27 12:11:00,
2013-01-27 04:33:00,38.0,38.0,-100.00,ESE,110,0.0,3.0,100,0.00,,,0.45,0.000000,,2013-01-27 12:33:00,
2013-01-27 04:42:00,38.0,38.0,-100.00,ESE,110,0.0,3.0,100,0.00,,,0.45,0.000000,,2013-01-27 12:42:00,
2013-01-27 04:52:00,38.0,38.0,-100.00,ESE,110,0.0,3.0,100,0.00,,,0.45,0.000000,,2013-01-27 12:52:00,
2013-01-27 05:02:00,38.0,38.0,-100.00,ESE,110,0.0,3.0,100,0.00,,,0.45,0.000000,,2013-01-27 13:02:00,
2013-01-27 05:11:00,38.0,38.0,-100.00,ESE,110,0.0,3.0,100,0.00,,,0.45,0.000000,,2013-01-27 13:11:00,
2013-01-27 05:32:00,38.0,38.0,-100.00,East,90,2.0,7.0,100,0.06,,,0.51,0.000000,,2013-01-27 13:32:00,
2013-01-27 05:42:00,38.0,38.0,-100.00,East,90,2.0,7.0,100,0.06,,,0.51,0.000000,,2013-01-27 13:42:00,
2013-01-27 05:52:00,38.0,38.0,-100.00,East,90,2.0,7.0,100,0.06,,,0.51,0.000000,,2013-01-27 13:52:00,
2013-01-27 06:01:00,38.0,38.0,-100.00,East,90,2.0,7.0,100,0.06,,,0.51,0.000000,,2013-01-27 14:01:00,
2013-01-27 06:11:00,38.0,38.0,-100.00,East,90,2.0,7.0,100,0.06,,,0.51,0.000000,,2013-01-27 14:11:00,
2013-01-27 06:53:00,37.0,37.0,-100.00,NE,44,1.0,4.0,100,0.00,,,0.47,0.000000,,2013-01-27 14:53:00,
2013-01-27 07:01:00,37.0,37.0,-100.00,NE,44,1.0,4.0,100,0.00,,,0.47,0.000000,,2013-01-27 15:01:00,
2013-01-27 07:11:00,37.0,37.0,-100.00,NE,44,1.0,4.0,100,0.00,,,0.47,0.000000,,2013-01-27 15:11:00,
2013-01-27 07:32:00,38.0,38.0,-100.00,SE,136,2.0,4.0,100,0.00,,,0.47,0.000000,,2013-01-27 15:32:00,
2013-01-27 07:42:00,38.0,38.0,-100.00,SE,136,2.0,4.0,100,0.00,,,0.47,0.000000,,2013-01-27 15:42:00,
2013-01-27 07:52:00,38.0,38.0,-100.00,SE,136,2.0,4.0,100,0.00,,,0.47,0.000000,,2013-01-27 15:52:00,
2013-01-27 08:02:00,38.0,38.0,-100.00,SE,136,2.0,4.0,100,0.00,,,0.47,0.000000,,2013-01-27 16:02:00,
2013-01-27 08:11:00,38.0,38.0,-100.00,SE,136,2.0,4.0,100,0.00,,,0.47,0.000000,,2013-01-27 16:11:00,
2013-01-27 08:33:00,38.0,38.0,-100.00,NNE,33,0.0,4.0,100,0.00,,,0.42,10.000000,,2013-01-27 16:33:00,
2013-01-27 08:42:00,38.0,38.0,-100.00,NNE,33,0.0,4.0,100,0.00,,,0.42,10.000000,,2013-01-27 16:42:00,
2013-01-27 08:53:00,38.0,38.0,-100.00,NNE,33,0.0,4.0,100,0.00,,,0.42,10.000000,,2013-01-27 16:53:00,
2013-01-27 09:01:00,38.0,38.0,-100.00,NNE,33,0.0,4.0,100,0.00,,,0.42,10.000000,,2013-01-27 17:01:00,
2013-01-27 09:11:00,38.0,38.0,-100.00,NNE,33,0.0,4.0,100,0.00,,,0.42,10.000000,,2013-01-27 17:11:00,
2013-01-27 09:32:00,40.0,40.0,-100.00,NE,36,1.0,6.0,100,0.02,,,0.43,37.000000,,2013-01-27 17:32:00,
2013-01-27 09:42:00,40.0,40.0,-100.00,NE,36,1.0,6.0,100,0.02,,,0.43,37.000000,,2013-01-27 17:42:00,
2013-01-27 09:52:00,40.0,40.0,-100.00,NE,36,1.0,6.0,100,0.02,,,0.43,37.000000,,2013-01-27 17:52:00,
2013-01-27 10:02:00,40.0,40.0,-100.00,NE,36,1.0,6.0,100,0.02,,,0.43,37.000000,,2013-01-27 18:02:00,
2013-01-27 10:11:00,40.0,40.0,-100.00,NE,36,1.0,6.0,100,0.02,,,0.43,37.000000,,2013-01-27 18:11:00,
2013-01-27 10:32:00,40.0,40.0,-100.00,ESE,109,1.0,3.0,100,0.01,,,0.41,59.000000,,2013-01-27 18:32:00,
2013-01-27 10:42:00,40.0,40.0,-100.00,ESE,109,1.0,3.0,100,0.01,,,0.41,59.000000,,2013-01-27 18:42:00,
2013-01-27 10:52:00,40.0,40.0,-100.00,ESE,109,1.0,3.0,100,0.01,,,0.41,59.000000,,2013-01-27 18:52:00,
2013-01-27 11:01:00,40.0,40.0,-100.00,ESE,109,1.0,3.0,100,0.01,,,0.41,59.000000,,2013-01-27 19:01:00,
2013-01-27 11:11:00,40.0,40.0,-100.00,ESE,109,1.0,3.0,100,0.01,,,0.41,59.000000,,2013-01-27 19:11:00,
2013-01-27 11:33:00,41.0,41.0,-100.00,SSE,156,2.0,6.0,100,0.04,,,0.44,80.000000,,2013-01-27 19:33:00,
2013-01-27 11:42:00,41.0,41.0,-100.00,SSE,156,2.0,6.0,100,0.04,,,0.44,80.000000,,2013-01-27 19:42:00,
2013-01-27 11:52:00,41.0,41.0,-100.00,SSE,156,2.0,6.0,100,0.04,,,0.44,80.000000,,2013-01-27 19:52:00,
2013-01-27 12:02:00,41.0,41.0,-100.00,SSE,156,2.0,6.0,100,0.04,,,0.44,80.000000,,2013-01-27 20:02:00,
2013-01-27 12:11:00,41.0,41.0,-100.00,SSE,156,2.0,6.0,100,0.04,,,0.44,80.000000,,2013-01-27 20:11:00,
2013-01-27 12:33:00,41.0,41.0,-100.00,NNW,339,3.0,12.0,100,0.12,,,0.52,47.000000,,2013-01-27 20:33:00,
2013-01-27 12:42:00,41.0,41.0,-100.00,NNW,339,3.0,12.0,100,0.12,,,0.52,47.000000,,2013-01-27 20:42:00,
2013-01-27 12:52:00,41.0,41.0,-100.00,NNW,339,3.0,12.0,100,0.12,,,0.52,47.000000,,2013-01-27 20:52:00,
2013-01-27 13:01:00,41.0,41.0,-100.00,NNW,339,3.0,12.0,100,0.12,,,0.52,47.000000,,2013-01-27 21:01:00,
2013-01-27 13:11:00,41.0,41.0,-100.00,NNW,339,3.0,12.0,100,0.12,,,0.52,47.000000,,2013-01-27 21:11:00,
2013-01-27 13:33:00,42.0,42.0,-100.00,SSE,157,2.0,3.0,100,0.06,,,0.57,82.000000,,2013-01-27 21:33:00,
2013-01-27 13:43:00,42.0,42.0,-100.00,SSE,157,2.0,3.0,100,0.06,,,0.57,82.000000,,2013-01-27 21:43:00,
2013-01-27 13:52:00,42.0,42.0,-100.00,SSE,157,2.0,3.0,100,0.06,,,0.57,82.000000,,2013-01-27 21:52:00,
2013-01-27 14:01:00,42.0,42.0,-100.00,SSE,157,2.0,3.0,100,0.06,,,0.57,82.000000,,2013-01-27 22:01:00,
2013-01-27 14:11:00,42.0,42.0,-100.00,SSE,157,2.0,3.0,100,0.06,,,0.57,82.000000,,2013-01-27 22:11:00,
2013-01-27 15:32:00,41.0,41.0,-100.00,ENE,58,1.0,7.0,100,-99.99,,,0.76,40.000000,,2013-01-27 23:32:00,
2013-01-27 15:42:00,41.0,41.0,-100.00,ENE,58,1.0,7.0,100,-99.99,,,0.76,40.000000,,2013-01-27 23:42:00,
2013-01-27 15:53:00,41.0,41.0,-100.00,ENE,58,1.0,7.0,100,-99.99,,,0.76,40.000000,,2013-01-27 23:53:00,
2013-01-27 16:01:00,41.0,41.0,-100.00,ENE,58,1.0,7.0,100,-99.99,,,0.76,40.000000,,2013-01-28 00:01:00,
2013-01-27 16:11:00,41.0,41.0,-100.00,ENE,58,1.0,7.0,100,-99.99,,,0.76,40.000000,,2013-01-28 00:11:00,
2013-01-27 16:33:00,41.0,41.0,-100.00,NE,48,0.0,4.0,100,0.06,,,0.79,22.000000,,2013-01-28 00:33:00,
2013-01-27 16:42:00,41.0,41.0,-100.00,NE,48,0.0,4.0,100,0.06,,,0.79,22.000000,,2013-01-28 00:42:00,
2013-01-27 16:52:00,41.0,41.0,-100.00,NE,48,0.0,4.0,100,0.06,,,0.79,22.000000,,2013-01-28 00:52:00,
2013-01-27 17:01:00,41.0,41.0,-100.00,NE,48,0.0,4.0,100,0.06,,,0.79,22.000000,,2013-01-28 01:01:00,
2013-01-27 17:11:00,41.0,41.0,-100.00,NE,48,0.0,4.0,100,0.06,,,0.79,22.000000,,2013-01-28 01:11:00,
2013-01-27 17:33:00,41.0,41.0,-100.00,SSE,161,1.0,2.0,100,0.08,,,0.85,6.000000,,2013-01-28 01:33:00,
2013-01-27 17:42:00,41.0,41.0,-100.00,SSE,161,1.0,2.0,100,0.08,,,0.85,6.000000,,2013-01-28 01:42:00,
2013-01-27 17:52:00,41.0,41.0,-100.00,SSE,161,1.0,2.0,100,0.08,,,0.85,6.000000,,2013-01-28 01:52:00,
2013-01-27 18:02:00,41.0,41.0,-100.00,SSE,161,1.0,2.0,100,0.08,,,0.85,6.000000,,2013-01-28 02:02:00,
2013-01-27 18:11:00,41.0,41.0,-100.00,SSE,161,1.0,2.0,100,0.08,,,0.85,6.000000,,2013-01-28 02:11:00,
2013-01-27 18:42:00,41.0,41.0,-100.00,ENE,72,1.0,4.0,100,0.06,,,0.91,0.000000,,2013-01-28 02:42:00,
2013-01-27 18:52:00,41.0,41.0,-100.00,ENE,72,1.0,4.0,100,0.06,,,0.91,0.000000,,2013-01-28 02:52:00,
2013-01-27 19:02:00,41.0,41.0,-100.00,ENE,72,1.0,4.0,100,0.06,,,0.91,0.000000,,2013-01-28 03:02:00,
2013-01-27 19:11:00,41.0,41.0,-100.00,ENE,72,1.0,4.0,100,0.06,,,0.91,0.000000,,2013-01-28 03:11:00,
2013-01-27 19:32:00,40.0,40.0,-100.00,NNE,26,2.0,6.0,100,0.09,,,0.99,0.000000,,2013-01-28 03:32:00,
2013-01-27 19:42:00,40.0,40.0,-100.00,NNE,26,2.0,6.0,100,0.09,,,0.99,0.000000,,2013-01-28 03:42:00,
2013-01-27 19:52:00,40.0,40.0,-100.00,NNE,26,2.0,6.0,100,0.09,,,0.99,0.000000,,2013-01-28 03:52:00,
2013-01-27 20:01:00,40.0,40.0,-100.00,NNE,26,2.0,6.0,100,0.09,,,0.99,0.000000,,2013-01-28 04:01:00,
2013-01-27 20:11:00,40.0,40.0,-100.00,NNE,26,2.0,6.0,100,0.09,,,0.99,0.000000,,2013-01-28 04:11:00,
2013-01-27 20:32:00,40.0,40.0,-100.00,NE,54,2.0,6.0,100,0.09,,,1.08,0.000000,,2013-01-28 04:32:00,
2013-01-27 20:42:00,40.0,40.0,-100.00,NE,54,2.0,6.0,100,0.09,,,1.08,0.000000,,2013-01-28 04:42:00,
2013-01-27 20:52:00,40.0,40.0,-100.00,NE,54,2.0,6.0,100,0.09,,,1.08,0.000000,,2013-01-28 04:52:00,
2013-01-27 21:03:00,40.0,40.0,-100.00,NE,54,2.0,6.0,100,0.09,,,1.08,0.000000,,2013-01-28 05:03:00,
2013-01-27 21:11:00,40.0,40.0,-100.00,NE,54,2.0,6.0,100,0.09,,,1.08,0.000000,,2013-01-28 05:11:00,
2013-01-27 21:32:00,39.0,39.0,-100.00,SSE,165,3.0,6.0,100,0.06,,,1.07,0.000000,,2013-01-28 05:32:00,
2013-01-27 21:42:00,39.0,39.0,-100.00,SSE,165,3.0,6.0,100,0.06,,,1.07,0.000000,,2013-01-28 05:42:00,
2013-01-27 21:52:00,39.0,39.0,-100.00,SSE,165,3.0,6.0,100,0.06,,,1.07,0.000000,,2013-01-28 05:52:00,
2013-01-27 22:02:00,39.0,39.0,-100.00,SSE,165,3.0,6.0,100,0.06,,,1.07,0.000000,,2013-01-28 06:02:00,
2013-01-27 22:11:00,39.0,39.0,-100.00,SSE,165,3.0,6.0,100,0.06,,,1.07,0.000000,,2013-01-28 06:11:00,
2013-01-27 22:32:00,39.0,39.0,-100.00,SE,125,1.0,6.0,100,0.03,,,1.09,0.000000,,2013-01-28 06:32:00,
2013-01-27 22:42:00,39.0,39.0,-100.00,SE,125,1.0,6.0,100,0.03,,,1.09,0.000000,,2013-01-28 06:42:00,
2013-01-27 22:52:00,39.0,39.0,-100.00,SE,125,1.0,6.0,100,0.03,,,1.09,0.000000,,2013-01-28 06:52:00,
2013-01-27 23:02:00,39.0,39.0,-100.00,SE,125,1.0,6.0,100,0.03,,,1.09,0.000000,,2013-01-28 07:02:00,
2013-01-27 23:11:00,39.0,39.0,-100.00,SE,125,1.0,6.0,100,0.03,,,1.09,0.000000,,2013-01-28 07:11:00,
2013-01-27 23:32:00,40.0,40.0,-100.00,SSE,153,2.0,5.0,100,0.00,,,1.09,0.000000,,2013-01-28 07:32:00,
2013-01-27 23:42:00,40.0,40.0,-100.00,SSE,153,2.0,5.0,100,0.00,,,1.09,0.000000,,2013-01-28 07:42:00,
2013-01-27 23:52:00,40.0,40.0,-100.00,SSE,153,2.0,5.0,100,0.00,,,1.09,0.000000,,2013-01-28 07:52:00,